sensor_id;sensor_type;location;lat;lon;timestamp;P1;durP1;ratioP1;P2;durP2;ratioP2
3589;SDS011;1809;48.470;9.226;2023-03-13T00:00:56;7.67;;;2.80;;
3589;SDS011;1809;48.470;9.226;2023-03-13T00:03:24;5.17;;;1.73;;
3589;SDS011;1809;48.470;9.226;2023-03-13T00:05:54;9.20;;;1.97;;
3589;SDS011;1809;48.470;9.226;2023-03-13T00:08:23;6.47;;;1.67;;
3589;SDS011;1809;48.470;9.226;2023-03-13T00:10:49;7.63;;;2.20;;
3589;SDS011;1809;48.470;9.226;2023-03-13T00:13:15;10.83;;;2.07;;
3589;SDS011;1809;48.470;9.226;2023-03-13T00:15:40;8.57;;;1.83;;
3589;SDS011;1809;48.470;9.226;2023-03-13T00:18:05;5.27;;;1.83;;
3589;SDS011;1809;48.470;9.226;2023-03-13T00:20:31;9.57;;;2.50;;
3589;SDS011;1809;48.470;9.226;2023-03-13T00:22:56;9.73;;;2.60;;
3589;SDS011;1809;48.470;9.226;2023-03-13T00:25:21;7.33;;;2.17;;
3589;SDS011;1809;48.470;9.226;2023-03-13T00:27:47;8.13;;;1.60;;
3589;SDS011;1809;48.470;9.226;2023-03-13T00:30:13;6.20;;;2.10;;
3589;SDS011;1809;48.470;9.226;2023-03-13T00:32:39;4.37;;;1.37;;
3589;SDS011;1809;48.470;9.226;2023-03-13T00:35:10;6.23;;;1.80;;
3589;SDS011;1809;48.470;9.226;2023-03-13T00:37:35;2.50;;;1.50;;
3589;SDS011;1809;48.470;9.226;2023-03-13T00:40:01;5.70;;;2.20;;
3589;SDS011;1809;48.470;9.226;2023-03-13T00:42:26;5.70;;;1.73;;
3589;SDS011;1809;48.470;9.226;2023-03-13T00:44:51;7.27;;;2.00;;
3589;SDS011;1809;48.470;9.226;2023-03-13T00:47:17;7.30;;;2.77;;
3589;SDS011;1809;48.470;9.226;2023-03-13T00:49:42;8.33;;;1.60;;
3589;SDS011;1809;48.470;9.226;2023-03-13T00:52:07;5.73;;;1.90;;
3589;SDS011;1809;48.470;9.226;2023-03-13T00:54:32;7.33;;;1.60;;
3589;SDS011;1809;48.470;9.226;2023-03-13T00:56:58;9.43;;;2.37;;
3589;SDS011;1809;48.470;9.226;2023-03-13T00:59:23;2.63;;;1.70;;
3589;SDS011;1809;48.470;9.226;2023-03-13T01:01:48;15.30;;;2.20;;
3589;SDS011;1809;48.470;9.226;2023-03-13T01:04:14;8.00;;;1.87;;
3589;SDS011;1809;48.470;9.226;2023-03-13T01:06:39;6.60;;;1.30;;
3589;SDS011;1809;48.470;9.226;2023-03-13T01:09:07;9.50;;;2.07;;
3589;SDS011;1809;48.470;9.226;2023-03-13T01:11:35;3.77;;;1.60;;
3589;SDS011;1809;48.470;9.226;2023-03-13T01:14:03;3.20;;;1.50;;
3589;SDS011;1809;48.470;9.226;2023-03-13T01:16:31;3.53;;;1.40;;
3589;SDS011;1809;48.470;9.226;2023-03-13T01:18:59;2.87;;;1.60;;
3589;SDS011;1809;48.470;9.226;2023-03-13T01:21:27;7.70;;;3.00;;
3589;SDS011;1809;48.470;9.226;2023-03-13T01:23:53;3.27;;;2.20;;
3589;SDS011;1809;48.470;9.226;2023-03-13T01:26:19;9.07;;;2.30;;
3589;SDS011;1809;48.470;9.226;2023-03-13T01:28:45;5.57;;;1.83;;
3589;SDS011;1809;48.470;9.226;2023-03-13T01:33:42;6.00;;;2.73;;
3589;SDS011;1809;48.470;9.226;2023-03-13T01:36:08;5.87;;;2.20;;
3589;SDS011;1809;48.470;9.226;2023-03-13T01:38:34;4.93;;;2.60;;
3589;SDS011;1809;48.470;9.226;2023-03-13T01:40:59;5.80;;;2.20;;
3589;SDS011;1809;48.470;9.226;2023-03-13T01:43:26;6.10;;;1.97;;
3589;SDS011;1809;48.470;9.226;2023-03-13T01:50:53;5.57;;;1.20;;
3589;SDS011;1809;48.470;9.226;2023-03-13T01:53:20;5.00;;;1.20;;
3589;SDS011;1809;48.470;9.226;2023-03-13T01:55:47;7.10;;;1.63;;
3589;SDS011;1809;48.470;9.226;2023-03-13T01:58:13;4.17;;;2.00;;
3589;SDS011;1809;48.470;9.226;2023-03-13T02:00:39;5.07;;;1.70;;
3589;SDS011;1809;48.470;9.226;2023-03-13T02:03:08;2.87;;;2.10;;
3589;SDS011;1809;48.470;9.226;2023-03-13T02:05:36;3.97;;;1.93;;
3589;SDS011;1809;48.470;9.226;2023-03-13T02:08:05;4.93;;;2.77;;
3589;SDS011;1809;48.470;9.226;2023-03-13T02:10:37;3.60;;;2.03;;
3589;SDS011;1809;48.470;9.226;2023-03-13T02:13:07;2.77;;;1.10;;
3589;SDS011;1809;48.470;9.226;2023-03-13T02:15:34;1.53;;;1.30;;
3589;SDS011;1809;48.470;9.226;2023-03-13T02:18:00;3.37;;;1.30;;
3589;SDS011;1809;48.470;9.226;2023-03-13T02:20:26;5.13;;;1.17;;
3589;SDS011;1809;48.470;9.226;2023-03-13T02:28:19;4.40;;;1.10;;
3589;SDS011;1809;48.470;9.226;2023-03-13T02:30:49;4.10;;;1.50;;
3589;SDS011;1809;48.470;9.226;2023-03-13T02:33:18;2.53;;;0.90;;
3589;SDS011;1809;48.470;9.226;2023-03-13T02:35:45;3.40;;;0.87;;
3589;SDS011;1809;48.470;9.226;2023-03-13T02:38:13;2.40;;;1.17;;
3589;SDS011;1809;48.470;9.226;2023-03-13T02:40:44;1.57;;;0.70;;
3589;SDS011;1809;48.470;9.226;2023-03-13T02:43:17;0.90;;;0.70;;
3589;SDS011;1809;48.470;9.226;2023-03-13T02:45:59;2.10;;;0.70;;
3589;SDS011;1809;48.470;9.226;2023-03-13T02:48:48;10.00;;;1.03;;
3589;SDS011;1809;48.470;9.226;2023-03-13T02:51:23;0.90;;;0.90;;
3589;SDS011;1809;48.470;9.226;2023-03-13T02:53:54;2.47;;;0.87;;
3589;SDS011;1809;48.470;9.226;2023-03-13T02:56:24;2.60;;;0.90;;
3589;SDS011;1809;48.470;9.226;2023-03-13T02:58:50;5.37;;;1.10;;
3589;SDS011;1809;48.470;9.226;2023-03-13T03:01:16;2.10;;;0.77;;
3589;SDS011;1809;48.470;9.226;2023-03-13T03:03:41;3.40;;;0.70;;
3589;SDS011;1809;48.470;9.226;2023-03-13T03:06:07;1.07;;;0.97;;
3589;SDS011;1809;48.470;9.226;2023-03-13T03:08:33;1.57;;;0.70;;
3589;SDS011;1809;48.470;9.226;2023-03-13T03:10:59;1.17;;;0.70;;
3589;SDS011;1809;48.470;9.226;2023-03-13T03:13:25;1.37;;;0.60;;
3589;SDS011;1809;48.470;9.226;2023-03-13T03:15:50;1.13;;;0.50;;
3589;SDS011;1809;48.470;9.226;2023-03-13T03:18:15;1.53;;;0.60;;
3589;SDS011;1809;48.470;9.226;2023-03-13T03:20:41;0.63;;;0.63;;
3589;SDS011;1809;48.470;9.226;2023-03-13T03:23:06;2.60;;;0.80;;
3589;SDS011;1809;48.470;9.226;2023-03-13T03:25:31;0.60;;;0.50;;
3589;SDS011;1809;48.470;9.226;2023-03-13T03:27:57;1.53;;;1.00;;
3589;SDS011;1809;48.470;9.226;2023-03-13T03:30:22;2.73;;;0.50;;
3589;SDS011;1809;48.470;9.226;2023-03-13T03:32:47;1.53;;;0.70;;
3589;SDS011;1809;48.470;9.226;2023-03-13T03:35:13;1.13;;;0.60;;
3589;SDS011;1809;48.470;9.226;2023-03-13T03:37:38;0.60;;;0.60;;
3589;SDS011;1809;48.470;9.226;2023-03-13T03:40:04;1.80;;;0.70;;
3589;SDS011;1809;48.470;9.226;2023-03-13T03:42:30;1.13;;;0.70;;
3589;SDS011;1809;48.470;9.226;2023-03-13T03:44:56;0.70;;;0.67;;
3589;SDS011;1809;48.470;9.226;2023-03-13T03:47:21;0.60;;;0.60;;
3589;SDS011;1809;48.470;9.226;2023-03-13T03:49:46;2.27;;;0.70;;
3589;SDS011;1809;48.470;9.226;2023-03-13T03:52:12;0.80;;;0.60;;
3589;SDS011;1809;48.470;9.226;2023-03-13T03:54:37;0.60;;;0.60;;
3589;SDS011;1809;48.470;9.226;2023-03-13T03:57:03;2.77;;;0.67;;
3589;SDS011;1809;48.470;9.226;2023-03-13T03:59:28;1.10;;;0.80;;
3589;SDS011;1809;48.470;9.226;2023-03-13T04:01:53;2.10;;;0.70;;
3589;SDS011;1809;48.470;9.226;2023-03-13T04:04:19;2.33;;;0.63;;
3589;SDS011;1809;48.470;9.226;2023-03-13T04:06:44;0.93;;;0.80;;
3589;SDS011;1809;48.470;9.226;2023-03-13T04:09:09;1.07;;;0.90;;
3589;SDS011;1809;48.470;9.226;2023-03-13T04:11:35;1.30;;;0.97;;
3589;SDS011;1809;48.470;9.226;2023-03-13T04:14:00;1.33;;;0.70;;
3589;SDS011;1809;48.470;9.226;2023-03-13T04:16:25;2.40;;;1.33;;
3589;SDS011;1809;48.470;9.226;2023-03-13T04:18:51;1.83;;;1.00;;
3589;SDS011;1809;48.470;9.226;2023-03-13T04:21:16;1.47;;;1.10;;
3589;SDS011;1809;48.470;9.226;2023-03-13T04:23:41;3.57;;;1.00;;
3589;SDS011;1809;48.470;9.226;2023-03-13T04:26:07;3.03;;;1.00;;
3589;SDS011;1809;48.470;9.226;2023-03-13T04:28:32;2.70;;;0.90;;
3589;SDS011;1809;48.470;9.226;2023-03-13T04:30:57;1.50;;;1.33;;
3589;SDS011;1809;48.470;9.226;2023-03-13T04:33:23;3.77;;;1.20;;
3589;SDS011;1809;48.470;9.226;2023-03-13T04:35:49;2.40;;;1.10;;
3589;SDS011;1809;48.470;9.226;2023-03-13T04:38:14;2.13;;;1.20;;
3589;SDS011;1809;48.470;9.226;2023-03-13T04:40:39;1.63;;;0.97;;
3589;SDS011;1809;48.470;9.226;2023-03-13T04:43:07;3.73;;;1.30;;
3589;SDS011;1809;48.470;9.226;2023-03-13T04:45:32;5.43;;;1.30;;
3589;SDS011;1809;48.470;9.226;2023-03-13T04:47:58;1.87;;;1.10;;
3589;SDS011;1809;48.470;9.226;2023-03-13T04:50:23;5.90;;;1.17;;
3589;SDS011;1809;48.470;9.226;2023-03-13T04:52:48;2.20;;;0.93;;
3589;SDS011;1809;48.470;9.226;2023-03-13T04:55:13;1.47;;;1.10;;
3589;SDS011;1809;48.470;9.226;2023-03-13T04:57:39;1.50;;;1.40;;
3589;SDS011;1809;48.470;9.226;2023-03-13T05:00:04;1.10;;;1.00;;
3589;SDS011;1809;48.470;9.226;2023-03-13T05:02:32;4.67;;;1.37;;
3589;SDS011;1809;48.470;9.226;2023-03-13T05:04:57;5.30;;;2.00;;
3589;SDS011;1809;48.470;9.226;2023-03-13T05:07:24;8.33;;;1.90;;
3589;SDS011;1809;48.470;9.226;2023-03-13T05:09:49;6.90;;;2.03;;
3589;SDS011;1809;48.470;9.226;2023-03-13T05:12:14;4.07;;;1.20;;
3589;SDS011;1809;48.470;9.226;2023-03-13T05:14:40;2.37;;;1.43;;
3589;SDS011;1809;48.470;9.226;2023-03-13T05:17:05;2.93;;;1.10;;
3589;SDS011;1809;48.470;9.226;2023-03-13T05:19:30;2.30;;;1.13;;
3589;SDS011;1809;48.470;9.226;2023-03-13T05:21:56;1.10;;;0.90;;
3589;SDS011;1809;48.470;9.226;2023-03-13T05:24:21;3.23;;;1.37;;
3589;SDS011;1809;48.470;9.226;2023-03-13T05:26:46;4.20;;;1.03;;
3589;SDS011;1809;48.470;9.226;2023-03-13T05:29:12;1.47;;;1.30;;
3589;SDS011;1809;48.470;9.226;2023-03-13T05:31:37;3.13;;;1.53;;
3589;SDS011;1809;48.470;9.226;2023-03-13T05:34:02;2.43;;;1.10;;
3589;SDS011;1809;48.470;9.226;2023-03-13T05:36:27;1.77;;;0.90;;
3589;SDS011;1809;48.470;9.226;2023-03-13T05:38:53;6.73;;;0.80;;
3589;SDS011;1809;48.470;9.226;2023-03-13T05:41:18;0.73;;;0.70;;
3589;SDS011;1809;48.470;9.226;2023-03-13T05:43:43;0.50;;;0.50;;
3589;SDS011;1809;48.470;9.226;2023-03-13T05:46:09;0.70;;;0.50;;
3589;SDS011;1809;48.470;9.226;2023-03-13T05:48:34;0.50;;;0.50;;
3589;SDS011;1809;48.470;9.226;2023-03-13T05:50:59;2.50;;;0.50;;
3589;SDS011;1809;48.470;9.226;2023-03-13T05:53:25;0.50;;;0.50;;
3589;SDS011;1809;48.470;9.226;2023-03-13T05:55:50;0.60;;;0.40;;
3589;SDS011;1809;48.470;9.226;2023-03-13T05:58:15;0.50;;;0.50;;
3589;SDS011;1809;48.470;9.226;2023-03-13T06:00:41;0.50;;;0.50;;
3589;SDS011;1809;48.470;9.226;2023-03-13T06:03:07;0.50;;;0.50;;
3589;SDS011;1809;48.470;9.226;2023-03-13T06:05:33;0.60;;;0.50;;
3589;SDS011;1809;48.470;9.226;2023-03-13T06:07:58;0.40;;;0.40;;
3589;SDS011;1809;48.470;9.226;2023-03-13T06:10:24;4.20;;;0.60;;
3589;SDS011;1809;48.470;9.226;2023-03-13T06:12:55;0.70;;;0.60;;
3589;SDS011;1809;48.470;9.226;2023-03-13T06:15:21;1.43;;;0.60;;
3589;SDS011;1809;48.470;9.226;2023-03-13T06:17:47;0.53;;;0.50;;
3589;SDS011;1809;48.470;9.226;2023-03-13T06:20:12;1.23;;;1.03;;
3589;SDS011;1809;48.470;9.226;2023-03-13T06:22:39;2.80;;;0.80;;
3589;SDS011;1809;48.470;9.226;2023-03-13T06:25:04;0.50;;;0.50;;
3589;SDS011;1809;48.470;9.226;2023-03-13T06:27:30;0.50;;;0.50;;
3589;SDS011;1809;48.470;9.226;2023-03-13T06:29:56;0.50;;;0.50;;
3589;SDS011;1809;48.470;9.226;2023-03-13T06:32:21;1.17;;;0.60;;
3589;SDS011;1809;48.470;9.226;2023-03-13T06:34:46;0.73;;;0.40;;
3589;SDS011;1809;48.470;9.226;2023-03-13T06:37:11;0.50;;;0.50;;
3589;SDS011;1809;48.470;9.226;2023-03-13T06:39:37;0.50;;;0.50;;
3589;SDS011;1809;48.470;9.226;2023-03-13T06:42:02;1.03;;;0.60;;
3589;SDS011;1809;48.470;9.226;2023-03-13T06:44:28;0.50;;;0.50;;
3589;SDS011;1809;48.470;9.226;2023-03-13T06:46:53;0.50;;;0.50;;
3589;SDS011;1809;48.470;9.226;2023-03-13T06:49:18;0.80;;;0.50;;
3589;SDS011;1809;48.470;9.226;2023-03-13T06:51:44;0.60;;;0.50;;
3589;SDS011;1809;48.470;9.226;2023-03-13T06:54:09;0.60;;;0.60;;
3589;SDS011;1809;48.470;9.226;2023-03-13T06:56:34;0.80;;;0.60;;
3589;SDS011;1809;48.470;9.226;2023-03-13T06:59:00;0.60;;;0.60;;
3589;SDS011;1809;48.470;9.226;2023-03-13T07:01:26;1.27;;;0.80;;
3589;SDS011;1809;48.470;9.226;2023-03-13T07:03:51;3.80;;;0.70;;
3589;SDS011;1809;48.470;9.226;2023-03-13T07:06:17;0.87;;;0.60;;
3589;SDS011;1809;48.470;9.226;2023-03-13T07:08:42;2.43;;;0.50;;
3589;SDS011;1809;48.470;9.226;2023-03-13T07:11:09;0.60;;;0.60;;
3589;SDS011;1809;48.470;9.226;2023-03-13T07:13:37;0.80;;;0.60;;
3589;SDS011;1809;48.470;9.226;2023-03-13T07:16:03;1.43;;;0.60;;
3589;SDS011;1809;48.470;9.226;2023-03-13T07:18:30;0.60;;;0.60;;
3589;SDS011;1809;48.470;9.226;2023-03-13T07:20:57;0.50;;;0.50;;
3589;SDS011;1809;48.470;9.226;2023-03-13T07:23:25;0.60;;;0.60;;
3589;SDS011;1809;48.470;9.226;2023-03-13T07:25:53;0.70;;;0.70;;
3589;SDS011;1809;48.470;9.226;2023-03-13T07:28:23;0.87;;;0.70;;
3589;SDS011;1809;48.470;9.226;2023-03-13T07:31:04;0.60;;;0.60;;
3589;SDS011;1809;48.470;9.226;2023-03-13T07:33:35;0.60;;;0.60;;
3589;SDS011;1809;48.470;9.226;2023-03-13T07:36:01;0.60;;;0.60;;
3589;SDS011;1809;48.470;9.226;2023-03-13T07:38:26;1.50;;;0.70;;
3589;SDS011;1809;48.470;9.226;2023-03-13T07:40:52;0.60;;;0.60;;
3589;SDS011;1809;48.470;9.226;2023-03-13T07:43:19;0.60;;;0.50;;
3589;SDS011;1809;48.470;9.226;2023-03-13T07:45:52;1.60;;;0.70;;
3589;SDS011;1809;48.470;9.226;2023-03-13T07:48:29;1.50;;;0.67;;
3589;SDS011;1809;48.470;9.226;2023-03-13T07:50:56;4.23;;;1.47;;
3589;SDS011;1809;48.470;9.226;2023-03-13T07:53:22;0.70;;;0.70;;
3589;SDS011;1809;48.470;9.226;2023-03-13T07:56:01;1.40;;;0.60;;
3589;SDS011;1809;48.470;9.226;2023-03-13T07:58:29;3.10;;;0.90;;
3589;SDS011;1809;48.470;9.226;2023-03-13T08:00:56;1.00;;;0.67;;
3589;SDS011;1809;48.470;9.226;2023-03-13T08:03:21;0.60;;;0.60;;
3589;SDS011;1809;48.470;9.226;2023-03-13T08:05:56;0.70;;;0.70;;
3589;SDS011;1809;48.470;9.226;2023-03-13T08:08:22;1.57;;;1.47;;
3589;SDS011;1809;48.470;9.226;2023-03-13T08:10:48;1.10;;;1.00;;
3589;SDS011;1809;48.470;9.226;2023-03-13T08:13:13;1.47;;;0.70;;
3589;SDS011;1809;48.470;9.226;2023-03-13T08:15:38;5.23;;;0.70;;
3589;SDS011;1809;48.470;9.226;2023-03-13T08:18:04;1.30;;;0.50;;
3589;SDS011;1809;48.470;9.226;2023-03-13T08:20:29;1.10;;;1.00;;
3589;SDS011;1809;48.470;9.226;2023-03-13T08:22:55;0.90;;;0.90;;
3589;SDS011;1809;48.470;9.226;2023-03-13T08:25:21;4.27;;;0.60;;
3589;SDS011;1809;48.470;9.226;2023-03-13T08:27:46;1.00;;;0.70;;
3589;SDS011;1809;48.470;9.226;2023-03-13T08:30:11;1.40;;;0.97;;
3589;SDS011;1809;48.470;9.226;2023-03-13T08:32:37;0.70;;;0.70;;
3589;SDS011;1809;48.470;9.226;2023-03-13T08:35:03;0.70;;;0.70;;
3589;SDS011;1809;48.470;9.226;2023-03-13T08:37:28;1.43;;;0.63;;
3589;SDS011;1809;48.470;9.226;2023-03-13T08:39:54;0.70;;;0.70;;
3589;SDS011;1809;48.470;9.226;2023-03-13T08:42:20;0.80;;;0.70;;
3589;SDS011;1809;48.470;9.226;2023-03-13T08:44:46;1.20;;;0.57;;
3589;SDS011;1809;48.470;9.226;2023-03-13T08:47:12;0.60;;;0.60;;
3589;SDS011;1809;48.470;9.226;2023-03-13T08:49:37;0.73;;;0.73;;
3589;SDS011;1809;48.470;9.226;2023-03-13T08:52:03;1.80;;;0.80;;
3589;SDS011;1809;48.470;9.226;2023-03-13T08:54:29;1.37;;;0.60;;
3589;SDS011;1809;48.470;9.226;2023-03-13T08:56:55;1.97;;;0.70;;
3589;SDS011;1809;48.470;9.226;2023-03-13T08:59:20;3.93;;;0.77;;
3589;SDS011;1809;48.470;9.226;2023-03-13T09:01:46;8.00;;;1.90;;
3589;SDS011;1809;48.470;9.226;2023-03-13T09:04:11;5.30;;;1.77;;
3589;SDS011;1809;48.470;9.226;2023-03-13T09:06:37;2.07;;;0.83;;
3589;SDS011;1809;48.470;9.226;2023-03-13T09:09:04;0.77;;;0.77;;
3589;SDS011;1809;48.470;9.226;2023-03-13T09:11:30;1.07;;;0.97;;
3589;SDS011;1809;48.470;9.226;2023-03-13T09:13:57;2.50;;;0.90;;
3589;SDS011;1809;48.470;9.226;2023-03-13T09:16:29;2.10;;;0.93;;
3589;SDS011;1809;48.470;9.226;2023-03-13T09:18:56;0.97;;;0.80;;
3589;SDS011;1809;48.470;9.226;2023-03-13T09:21:26;0.70;;;0.63;;
3589;SDS011;1809;48.470;9.226;2023-03-13T09:23:55;1.20;;;0.70;;
3589;SDS011;1809;48.470;9.226;2023-03-13T09:26:21;3.03;;;1.27;;
3589;SDS011;1809;48.470;9.226;2023-03-13T09:28:47;3.93;;;0.83;;
3589;SDS011;1809;48.470;9.226;2023-03-13T09:31:14;0.90;;;0.90;;
3589;SDS011;1809;48.470;9.226;2023-03-13T09:33:48;1.03;;;0.60;;
3589;SDS011;1809;48.470;9.226;2023-03-13T09:36:14;0.80;;;0.80;;
3589;SDS011;1809;48.470;9.226;2023-03-13T09:38:40;2.40;;;0.70;;
3589;SDS011;1809;48.470;9.226;2023-03-13T09:51:47;1.77;;;1.10;;
3589;SDS011;1809;48.470;9.226;2023-03-13T09:56:59;1.80;;;1.00;;
3589;SDS011;1809;48.470;9.226;2023-03-13T09:59:36;1.13;;;1.03;;
3589;SDS011;1809;48.470;9.226;2023-03-13T10:02:20;1.20;;;1.10;;
3589;SDS011;1809;48.470;9.226;2023-03-13T10:04:55;3.87;;;1.63;;
3589;SDS011;1809;48.470;9.226;2023-03-13T10:07:26;1.77;;;1.67;;
3589;SDS011;1809;48.470;9.226;2023-03-13T10:09:51;4.83;;;1.00;;
3589;SDS011;1809;48.470;9.226;2023-03-13T10:12:18;1.20;;;0.90;;
3589;SDS011;1809;48.470;9.226;2023-03-13T10:20:00;6.63;;;1.50;;
3589;SDS011;1809;48.470;9.226;2023-03-13T10:22:47;2.30;;;1.60;;
3589;SDS011;1809;48.470;9.226;2023-03-13T10:27:51;2.77;;;0.87;;
3589;SDS011;1809;48.470;9.226;2023-03-13T10:30:23;2.40;;;1.33;;
3589;SDS011;1809;48.470;9.226;2023-03-13T10:32:49;2.23;;;1.20;;
3589;SDS011;1809;48.470;9.226;2023-03-13T10:35:24;1.87;;;1.13;;
3589;SDS011;1809;48.470;9.226;2023-03-13T10:38:02;1.47;;;1.27;;
3589;SDS011;1809;48.470;9.226;2023-03-13T10:40:29;1.80;;;1.70;;
3589;SDS011;1809;48.470;9.226;2023-03-13T10:43:05;2.23;;;1.07;;
3589;SDS011;1809;48.470;9.226;2023-03-13T10:45:37;6.87;;;1.37;;
3589;SDS011;1809;48.470;9.226;2023-03-13T10:48:10;3.20;;;1.47;;
3589;SDS011;1809;48.470;9.226;2023-03-13T10:50:58;1.10;;;1.00;;
3589;SDS011;1809;48.470;9.226;2023-03-13T10:58:42;1.80;;;1.50;;
3589;SDS011;1809;48.470;9.226;2023-03-13T11:01:14;3.73;;;1.30;;
3589;SDS011;1809;48.470;9.226;2023-03-13T11:03:47;4.53;;;1.37;;
3589;SDS011;1809;48.470;9.226;2023-03-13T11:08:59;2.30;;;1.30;;
3589;SDS011;1809;48.470;9.226;2023-03-13T11:11:46;2.00;;;1.33;;
3589;SDS011;1809;48.470;9.226;2023-03-13T11:14:20;1.57;;;1.20;;
3589;SDS011;1809;48.470;9.226;2023-03-13T11:16:49;3.03;;;1.30;;
3589;SDS011;1809;48.470;9.226;2023-03-13T11:19:28;0.93;;;0.93;;
3589;SDS011;1809;48.470;9.226;2023-03-13T11:24:59;4.97;;;1.20;;
3589;SDS011;1809;48.470;9.226;2023-03-13T11:36:12;1.20;;;1.20;;
3589;SDS011;1809;48.470;9.226;2023-03-13T11:38:49;5.90;;;1.20;;
3589;SDS011;1809;48.470;9.226;2023-03-13T11:49:52;3.80;;;1.27;;
3589;SDS011;1809;48.470;9.226;2023-03-13T11:52:34;1.40;;;1.30;;
3589;SDS011;1809;48.470;9.226;2023-03-13T11:55:17;1.30;;;1.20;;
3589;SDS011;1809;48.470;9.226;2023-03-13T12:00:35;1.60;;;1.50;;
3589;SDS011;1809;48.470;9.226;2023-03-13T12:03:21;4.10;;;1.67;;
3589;SDS011;1809;48.470;9.226;2023-03-13T12:05:58;11.73;;;1.50;;
3589;SDS011;1809;48.470;9.226;2023-03-13T12:08:29;1.20;;;1.10;;
3589;SDS011;1809;48.470;9.226;2023-03-13T12:11:12;3.90;;;1.63;;
3589;SDS011;1809;48.470;9.226;2023-03-13T12:13:53;2.00;;;1.33;;
3589;SDS011;1809;48.470;9.226;2023-03-13T12:16:45;1.73;;;1.47;;
3589;SDS011;1809;48.470;9.226;2023-03-13T12:19:20;5.43;;;1.87;;
3589;SDS011;1809;48.470;9.226;2023-03-13T12:21:52;2.70;;;1.47;;
3589;SDS011;1809;48.470;9.226;2023-03-13T12:24:31;2.30;;;1.60;;
3589;SDS011;1809;48.470;9.226;2023-03-13T12:27:09;1.63;;;1.37;;
3589;SDS011;1809;48.470;9.226;2023-03-13T12:29:52;1.37;;;1.20;;
3589;SDS011;1809;48.470;9.226;2023-03-13T12:35:30;3.80;;;1.43;;
3589;SDS011;1809;48.470;9.226;2023-03-13T12:39:00;5.43;;;2.23;;
3589;SDS011;1809;48.470;9.226;2023-03-13T12:43:39;1.90;;;1.30;;
3589;SDS011;1809;48.470;9.226;2023-03-13T12:46:20;3.53;;;1.60;;
3589;SDS011;1809;48.470;9.226;2023-03-13T13:00:49;3.80;;;1.40;;
3589;SDS011;1809;48.470;9.226;2023-03-13T13:09:01;1.87;;;1.30;;
3589;SDS011;1809;48.470;9.226;2023-03-13T13:14:04;3.63;;;1.50;;
3589;SDS011;1809;48.470;9.226;2023-03-13T13:16:51;3.80;;;1.43;;
3589;SDS011;1809;48.470;9.226;2023-03-13T13:24:51;2.00;;;1.07;;
3589;SDS011;1809;48.470;9.226;2023-03-13T13:30:01;5.97;;;1.30;;
3589;SDS011;1809;48.470;9.226;2023-03-13T13:43:50;1.53;;;1.20;;
3589;SDS011;1809;48.470;9.226;2023-03-13T13:46:48;2.20;;;1.10;;
3589;SDS011;1809;48.470;9.226;2023-03-13T13:49:15;8.03;;;1.10;;
3589;SDS011;1809;48.470;9.226;2023-03-13T13:54:59;5.33;;;1.00;;
3589;SDS011;1809;48.470;9.226;2023-03-13T13:57:20;4.10;;;1.13;;
3589;SDS011;1809;48.470;9.226;2023-03-13T13:59:49;1.87;;;1.37;;
3589;SDS011;1809;48.470;9.226;2023-03-13T14:02:30;2.40;;;1.20;;
3589;SDS011;1809;48.470;9.226;2023-03-13T14:05:04;2.20;;;1.30;;
3589;SDS011;1809;48.470;9.226;2023-03-13T14:15:43;2.10;;;1.40;;
3589;SDS011;1809;48.470;9.226;2023-03-13T14:23:43;1.47;;;1.37;;
3589;SDS011;1809;48.470;9.226;2023-03-13T14:28:36;1.83;;;1.10;;
3589;SDS011;1809;48.470;9.226;2023-03-13T14:31:04;1.47;;;1.37;;
3589;SDS011;1809;48.470;9.226;2023-03-13T14:33:29;2.07;;;1.00;;
3589;SDS011;1809;48.470;9.226;2023-03-13T14:35:55;2.63;;;1.17;;
3589;SDS011;1809;48.470;9.226;2023-03-13T14:38:25;3.13;;;1.10;;
3589;SDS011;1809;48.470;9.226;2023-03-13T14:40:54;5.30;;;1.30;;
3589;SDS011;1809;48.470;9.226;2023-03-13T14:45:59;3.27;;;1.47;;
3589;SDS011;1809;48.470;9.226;2023-03-13T14:48:36;2.80;;;1.33;;
3589;SDS011;1809;48.470;9.226;2023-03-13T14:51:16;4.47;;;1.40;;
3589;SDS011;1809;48.470;9.226;2023-03-13T14:53:54;2.97;;;1.57;;
3589;SDS011;1809;48.470;9.226;2023-03-13T14:56:20;1.90;;;1.10;;
3589;SDS011;1809;48.470;9.226;2023-03-13T14:59:05;1.00;;;1.00;;
3589;SDS011;1809;48.470;9.226;2023-03-13T15:01:32;6.97;;;1.20;;
3589;SDS011;1809;48.470;9.226;2023-03-13T15:03:58;4.47;;;1.77;;
3589;SDS011;1809;48.470;9.226;2023-03-13T15:06:23;1.40;;;1.30;;
3589;SDS011;1809;48.470;9.226;2023-03-13T15:11:34;1.13;;;1.03;;
3589;SDS011;1809;48.470;9.226;2023-03-13T15:14:28;1.23;;;0.90;;
3589;SDS011;1809;48.470;9.226;2023-03-13T15:16:57;3.30;;;1.00;;
3589;SDS011;1809;48.470;9.226;2023-03-13T15:19:22;3.77;;;1.10;;
3589;SDS011;1809;48.470;9.226;2023-03-13T15:21:50;4.53;;;1.23;;
3589;SDS011;1809;48.470;9.226;2023-03-13T15:24:15;3.73;;;1.10;;
3589;SDS011;1809;48.470;9.226;2023-03-13T15:26:41;2.97;;;1.20;;
3589;SDS011;1809;48.470;9.226;2023-03-13T15:29:07;2.23;;;0.97;;
3589;SDS011;1809;48.470;9.226;2023-03-13T15:31:34;5.23;;;1.13;;
3589;SDS011;1809;48.470;9.226;2023-03-13T15:33:59;2.50;;;0.97;;
3589;SDS011;1809;48.470;9.226;2023-03-13T15:36:25;4.20;;;1.57;;
3589;SDS011;1809;48.470;9.226;2023-03-13T15:38:51;3.53;;;0.90;;
3589;SDS011;1809;48.470;9.226;2023-03-13T15:41:18;1.23;;;0.90;;
3589;SDS011;1809;48.470;9.226;2023-03-13T15:43:44;1.33;;;0.70;;
3589;SDS011;1809;48.470;9.226;2023-03-13T15:46:13;1.17;;;1.07;;
3589;SDS011;1809;48.470;9.226;2023-03-13T15:48:39;1.43;;;1.33;;
3589;SDS011;1809;48.470;9.226;2023-03-13T15:51:08;3.77;;;1.03;;
3589;SDS011;1809;48.470;9.226;2023-03-13T15:53:36;5.60;;;1.27;;
3589;SDS011;1809;48.470;9.226;2023-03-13T15:56:05;1.67;;;1.57;;
3589;SDS011;1809;48.470;9.226;2023-03-13T15:58:37;1.20;;;1.10;;
3589;SDS011;1809;48.470;9.226;2023-03-13T16:01:03;3.77;;;1.10;;
3589;SDS011;1809;48.470;9.226;2023-03-13T16:03:28;1.43;;;1.07;;
3589;SDS011;1809;48.470;9.226;2023-03-13T16:05:54;5.70;;;1.30;;
3589;SDS011;1809;48.470;9.226;2023-03-13T16:08:30;1.10;;;1.10;;
3589;SDS011;1809;48.470;9.226;2023-03-13T16:10:55;1.47;;;1.20;;
3589;SDS011;1809;48.470;9.226;2023-03-13T16:13:20;1.87;;;1.47;;
3589;SDS011;1809;48.470;9.226;2023-03-13T16:15:46;1.73;;;1.00;;
3589;SDS011;1809;48.470;9.226;2023-03-13T16:18:19;0.90;;;0.90;;
3589;SDS011;1809;48.470;9.226;2023-03-13T16:20:46;1.33;;;0.97;;
3589;SDS011;1809;48.470;9.226;2023-03-13T16:23:12;1.20;;;0.90;;
3589;SDS011;1809;48.470;9.226;2023-03-13T16:25:38;3.53;;;1.30;;
3589;SDS011;1809;48.470;9.226;2023-03-13T16:28:04;2.60;;;1.00;;
3589;SDS011;1809;48.470;9.226;2023-03-13T16:30:32;1.20;;;1.10;;
3589;SDS011;1809;48.470;9.226;2023-03-13T16:32:58;2.33;;;0.90;;
3589;SDS011;1809;48.470;9.226;2023-03-13T16:35:24;5.17;;;1.40;;
3589;SDS011;1809;48.470;9.226;2023-03-13T16:37:52;2.50;;;1.00;;
3589;SDS011;1809;48.470;9.226;2023-03-13T16:40:19;3.00;;;1.30;;
3589;SDS011;1809;48.470;9.226;2023-03-13T16:42:46;6.23;;;0.90;;
3589;SDS011;1809;48.470;9.226;2023-03-13T16:45:12;4.00;;;1.00;;
3589;SDS011;1809;48.470;9.226;2023-03-13T16:47:38;2.50;;;1.20;;
3589;SDS011;1809;48.470;9.226;2023-03-13T16:50:14;2.73;;;1.50;;
3589;SDS011;1809;48.470;9.226;2023-03-13T16:52:57;3.93;;;1.17;;
3589;SDS011;1809;48.470;9.226;2023-03-13T16:55:22;2.40;;;1.30;;
3589;SDS011;1809;48.470;9.226;2023-03-13T16:57:52;2.87;;;2.67;;
3589;SDS011;1809;48.470;9.226;2023-03-13T17:00:19;3.03;;;1.03;;
3589;SDS011;1809;48.470;9.226;2023-03-13T17:02:45;1.57;;;1.47;;
3589;SDS011;1809;48.470;9.226;2023-03-13T17:05:11;2.23;;;1.43;;
3589;SDS011;1809;48.470;9.226;2023-03-13T17:07:39;2.50;;;1.27;;
3589;SDS011;1809;48.470;9.226;2023-03-13T17:10:26;4.57;;;0.97;;
3589;SDS011;1809;48.470;9.226;2023-03-13T17:12:56;2.30;;;1.30;;
3589;SDS011;1809;48.470;9.226;2023-03-13T17:15:22;8.00;;;1.20;;
3589;SDS011;1809;48.470;9.226;2023-03-13T17:17:48;4.10;;;1.20;;
3589;SDS011;1809;48.470;9.226;2023-03-13T17:20:22;2.10;;;2.00;;
3589;SDS011;1809;48.470;9.226;2023-03-13T17:22:51;1.40;;;1.30;;
3589;SDS011;1809;48.470;9.226;2023-03-13T17:25:17;2.20;;;1.33;;
3589;SDS011;1809;48.470;9.226;2023-03-13T17:27:42;3.97;;;1.80;;
3589;SDS011;1809;48.470;9.226;2023-03-13T17:30:18;1.83;;;1.20;;
3589;SDS011;1809;48.470;9.226;2023-03-13T17:32:45;2.10;;;1.30;;
3589;SDS011;1809;48.470;9.226;2023-03-13T17:35:12;2.40;;;1.03;;
3589;SDS011;1809;48.470;9.226;2023-03-13T17:37:38;1.40;;;1.30;;